sensor_id;sensor_type;location;lat;lon;timestamp;P1;durP1;ratioP1;P2;durP2;ratioP2
65835;SDS011;52595;51.608;7.216;2023-01-28T00:00:29;8.13;;;4.40;;
65835;SDS011;52595;51.608;7.216;2023-01-28T00:02:55;6.22;;;4.15;;
65835;SDS011;52595;51.608;7.216;2023-01-28T00:05:20;7.60;;;4.07;;
65835;SDS011;52595;51.608;7.216;2023-01-28T00:07:48;6.45;;;4.05;;
65835;SDS011;52595;51.608;7.216;2023-01-28T00:10:14;6.50;;;4.30;;
65835;SDS011;52595;51.608;7.216;2023-01-28T00:12:40;7.53;;;4.38;;
65835;SDS011;52595;51.608;7.216;2023-01-28T00:15:06;6.10;;;4.05;;
65835;SDS011;52595;51.608;7.216;2023-01-28T00:17:31;7.15;;;4.10;;
65835;SDS011;52595;51.608;7.216;2023-01-28T00:19:57;7.03;;;4.25;;
65835;SDS011;52595;51.608;7.216;2023-01-28T00:22:22;6.90;;;4.10;;
65835;SDS011;52595;51.608;7.216;2023-01-28T00:24:48;6.13;;;3.85;;
65835;SDS011;52595;51.608;7.216;2023-01-28T00:27:13;6.38;;;3.97;;
65835;SDS011;52595;51.608;7.216;2023-01-28T00:29:39;6.32;;;3.88;;
65835;SDS011;52595;51.608;7.216;2023-01-28T00:32:04;6.43;;;3.75;;
65835;SDS011;52595;51.608;7.216;2023-01-28T00:34:29;6.63;;;3.80;;
65835;SDS011;52595;51.608;7.216;2023-01-28T00:36:55;5.93;;;3.88;;
65835;SDS011;52595;51.608;7.216;2023-01-28T00:39:23;6.85;;;3.83;;
65835;SDS011;52595;51.608;7.216;2023-01-28T00:41:50;5.53;;;3.60;;
65835;SDS011;52595;51.608;7.216;2023-01-28T00:44:17;5.82;;;4.00;;
65835;SDS011;52595;51.608;7.216;2023-01-28T00:46:43;6.97;;;3.92;;
65835;SDS011;52595;51.608;7.216;2023-01-28T00:49:08;6.18;;;3.70;;
65835;SDS011;52595;51.608;7.216;2023-01-28T00:51:34;5.93;;;3.90;;
65835;SDS011;52595;51.608;7.216;2023-01-28T00:53:59;6.53;;;3.70;;
65835;SDS011;52595;51.608;7.216;2023-01-28T00:56:24;6.15;;;3.88;;
65835;SDS011;52595;51.608;7.216;2023-01-28T00:58:50;5.85;;;3.80;;
65835;SDS011;52595;51.608;7.216;2023-01-28T01:01:17;6.13;;;3.95;;
65835;SDS011;52595;51.608;7.216;2023-01-28T01:03:48;7.15;;;4.00;;
65835;SDS011;52595;51.608;7.216;2023-01-28T01:06:21;8.40;;;4.20;;
65835;SDS011;52595;51.608;7.216;2023-01-28T01:08:47;6.32;;;3.58;;
65835;SDS011;52595;51.608;7.216;2023-01-28T01:11:14;6.20;;;3.83;;
65835;SDS011;52595;51.608;7.216;2023-01-28T01:13:40;7.18;;;4.20;;
65835;SDS011;52595;51.608;7.216;2023-01-28T01:16:07;6.22;;;4.10;;
65835;SDS011;52595;51.608;7.216;2023-01-28T01:18:38;6.70;;;4.00;;
65835;SDS011;52595;51.608;7.216;2023-01-28T01:21:09;5.93;;;3.90;;
65835;SDS011;52595;51.608;7.216;2023-01-28T01:23:37;5.53;;;3.67;;
65835;SDS011;52595;51.608;7.216;2023-01-28T01:26:03;5.82;;;3.88;;
65835;SDS011;52595;51.608;7.216;2023-01-28T01:28:29;6.32;;;4.05;;
65835;SDS011;52595;51.608;7.216;2023-01-28T01:31:02;5.72;;;3.90;;
65835;SDS011;52595;51.608;7.216;2023-01-28T01:33:30;6.60;;;4.10;;
65835;SDS011;52595;51.608;7.216;2023-01-28T01:35:56;5.45;;;3.60;;
65835;SDS011;52595;51.608;7.216;2023-01-28T01:38:22;7.13;;;4.18;;
65835;SDS011;52595;51.608;7.216;2023-01-28T01:40:47;6.75;;;4.10;;
65835;SDS011;52595;51.608;7.216;2023-01-28T01:43:20;6.35;;;4.20;;
65835;SDS011;52595;51.608;7.216;2023-01-28T01:45:50;7.63;;;4.32;;
65835;SDS011;52595;51.608;7.216;2023-01-28T01:48:31;5.78;;;3.83;;
65835;SDS011;52595;51.608;7.216;2023-01-28T01:51:08;6.40;;;3.97;;
65835;SDS011;52595;51.608;7.216;2023-01-28T01:53:37;5.85;;;4.00;;
65835;SDS011;52595;51.608;7.216;2023-01-28T01:56:08;6.38;;;4.13;;
65835;SDS011;52595;51.608;7.216;2023-01-28T01:58:36;8.27;;;4.53;;
65835;SDS011;52595;51.608;7.216;2023-01-28T02:01:05;7.55;;;4.50;;
65835;SDS011;52595;51.608;7.216;2023-01-28T02:03:35;6.50;;;4.07;;
65835;SDS011;52595;51.608;7.216;2023-01-28T02:06:07;8.80;;;4.50;;
65835;SDS011;52595;51.608;7.216;2023-01-28T02:08:33;8.18;;;4.47;;
65835;SDS011;52595;51.608;7.216;2023-01-28T02:11:02;6.65;;;4.55;;
65835;SDS011;52595;51.608;7.216;2023-01-28T02:13:43;9.18;;;4.60;;
65835;SDS011;52595;51.608;7.216;2023-01-28T02:16:12;7.72;;;4.47;;
65835;SDS011;52595;51.608;7.216;2023-01-28T02:18:38;6.80;;;4.40;;
65835;SDS011;52595;51.608;7.216;2023-01-28T02:37:57;8.13;;;4.63;;
65835;SDS011;52595;51.608;7.216;2023-01-28T02:40:28;7.07;;;4.60;;
65835;SDS011;52595;51.608;7.216;2023-01-28T02:42:58;8.23;;;4.60;;
65835;SDS011;52595;51.608;7.216;2023-01-28T02:45:25;8.88;;;4.57;;
65835;SDS011;52595;51.608;7.216;2023-01-28T02:48:12;7.35;;;4.55;;
65835;SDS011;52595;51.608;7.216;2023-01-28T02:50:43;7.43;;;4.70;;
65835;SDS011;52595;51.608;7.216;2023-01-28T02:53:38;8.73;;;4.70;;
65835;SDS011;52595;51.608;7.216;2023-01-28T03:02:40;9.52;;;5.30;;
65835;SDS011;52595;51.608;7.216;2023-01-28T03:07:28;8.07;;;5.15;;
65835;SDS011;52595;51.608;7.216;2023-01-28T03:09:55;9.60;;;5.18;;
65835;SDS011;52595;51.608;7.216;2023-01-28T03:12:23;8.52;;;5.13;;
65835;SDS011;52595;51.608;7.216;2023-01-28T03:15:17;8.85;;;4.90;;
65835;SDS011;52595;51.608;7.216;2023-01-28T03:18:14;7.57;;;5.28;;
65835;SDS011;52595;51.608;7.216;2023-01-28T03:21:07;7.93;;;5.15;;
65835;SDS011;52595;51.608;7.216;2023-01-28T03:23:59;8.38;;;5.40;;
65835;SDS011;52595;51.608;7.216;2023-01-28T03:26:46;8.88;;;5.25;;
65835;SDS011;52595;51.608;7.216;2023-01-28T03:29:39;9.93;;;5.80;;
65835;SDS011;52595;51.608;7.216;2023-01-28T03:32:26;10.18;;;5.75;;
65835;SDS011;52595;51.608;7.216;2023-01-28T03:35:10;9.43;;;6.03;;
65835;SDS011;52595;51.608;7.216;2023-01-28T03:37:57;10.02;;;6.18;;
65835;SDS011;52595;51.608;7.216;2023-01-28T03:40:24;9.82;;;6.70;;
65835;SDS011;52595;51.608;7.216;2023-01-28T03:42:50;10.73;;;6.80;;
65835;SDS011;52595;51.608;7.216;2023-01-28T03:45:16;12.23;;;7.00;;
65835;SDS011;52595;51.608;7.216;2023-01-28T03:47:41;10.95;;;7.05;;
65835;SDS011;52595;51.608;7.216;2023-01-28T03:50:08;11.27;;;7.05;;
65835;SDS011;52595;51.608;7.216;2023-01-28T03:52:34;10.35;;;6.72;;
65835;SDS011;52595;51.608;7.216;2023-01-28T03:54:59;11.65;;;7.00;;
65835;SDS011;52595;51.608;7.216;2023-01-28T03:57:25;11.18;;;6.20;;
65835;SDS011;52595;51.608;7.216;2023-01-28T03:59:52;11.15;;;6.78;;
65835;SDS011;52595;51.608;7.216;2023-01-28T04:02:21;10.98;;;6.82;;
65835;SDS011;52595;51.608;7.216;2023-01-28T04:04:47;10.32;;;6.80;;
65835;SDS011;52595;51.608;7.216;2023-01-28T04:07:14;11.38;;;6.75;;
65835;SDS011;52595;51.608;7.216;2023-01-28T04:09:40;11.27;;;6.75;;
65835;SDS011;52595;51.608;7.216;2023-01-28T04:12:06;10.20;;;6.68;;
65835;SDS011;52595;51.608;7.216;2023-01-28T04:14:32;10.98;;;7.05;;
65835;SDS011;52595;51.608;7.216;2023-01-28T04:16:57;10.40;;;6.93;;
65835;SDS011;52595;51.608;7.216;2023-01-28T04:19:23;9.95;;;6.85;;
65835;SDS011;52595;51.608;7.216;2023-01-28T04:21:49;10.32;;;6.50;;
65835;SDS011;52595;51.608;7.216;2023-01-28T04:24:18;11.48;;;6.97;;
65835;SDS011;52595;51.608;7.216;2023-01-28T04:26:44;10.30;;;6.47;;
65835;SDS011;52595;51.608;7.216;2023-01-28T04:29:09;10.07;;;6.45;;
65835;SDS011;52595;51.608;7.216;2023-01-28T04:31:35;11.55;;;6.72;;
65835;SDS011;52595;51.608;7.216;2023-01-28T04:34:00;9.73;;;6.18;;
65835;SDS011;52595;51.608;7.216;2023-01-28T04:36:26;10.18;;;6.32;;
65835;SDS011;52595;51.608;7.216;2023-01-28T04:38:51;9.70;;;6.53;;
65835;SDS011;52595;51.608;7.216;2023-01-28T04:41:18;10.25;;;6.63;;
65835;SDS011;52595;51.608;7.216;2023-01-28T04:43:44;11.77;;;6.68;;
65835;SDS011;52595;51.608;7.216;2023-01-28T04:46:10;10.35;;;6.75;;
65835;SDS011;52595;51.608;7.216;2023-01-28T04:48:35;12.80;;;7.47;;
65835;SDS011;52595;51.608;7.216;2023-01-28T04:51:04;11.15;;;6.80;;
65835;SDS011;52595;51.608;7.216;2023-01-28T04:53:30;12.30;;;7.32;;
65835;SDS011;52595;51.608;7.216;2023-01-28T04:55:55;11.88;;;7.18;;
65835;SDS011;52595;51.608;7.216;2023-01-28T04:58:21;11.88;;;7.85;;
65835;SDS011;52595;51.608;7.216;2023-01-28T05:00:50;12.38;;;7.78;;
65835;SDS011;52595;51.608;7.216;2023-01-28T05:03:25;12.65;;;7.90;;
65835;SDS011;52595;51.608;7.216;2023-01-28T05:05:50;11.20;;;7.28;;
65835;SDS011;52595;51.608;7.216;2023-01-28T05:08:16;12.05;;;7.57;;
65835;SDS011;52595;51.608;7.216;2023-01-28T05:10:41;12.07;;;7.10;;
65835;SDS011;52595;51.608;7.216;2023-01-28T05:13:07;13.50;;;8.15;;
65835;SDS011;52595;51.608;7.216;2023-01-28T05:15:32;11.23;;;7.13;;
65835;SDS011;52595;51.608;7.216;2023-01-28T05:17:57;10.75;;;7.20;;
65835;SDS011;52595;51.608;7.216;2023-01-28T05:20:24;11.00;;;6.78;;
65835;SDS011;52595;51.608;7.216;2023-01-28T05:22:49;12.38;;;6.97;;
65835;SDS011;52595;51.608;7.216;2023-01-28T05:25:15;11.63;;;7.43;;
65835;SDS011;52595;51.608;7.216;2023-01-28T05:27:40;11.40;;;7.20;;
65835;SDS011;52595;51.608;7.216;2023-01-28T05:30:06;12.45;;;7.50;;
65835;SDS011;52595;51.608;7.216;2023-01-28T05:32:32;12.73;;;7.70;;
65835;SDS011;52595;51.608;7.216;2023-01-28T05:34:57;12.38;;;7.80;;
65835;SDS011;52595;51.608;7.216;2023-01-28T05:37:23;13.75;;;8.10;;
65835;SDS011;52595;51.608;7.216;2023-01-28T05:39:48;13.32;;;7.72;;
65835;SDS011;52595;51.608;7.216;2023-01-28T05:42:13;11.95;;;7.55;;
65835;SDS011;52595;51.608;7.216;2023-01-28T05:44:39;14.73;;;8.18;;
65835;SDS011;52595;51.608;7.216;2023-01-28T05:47:05;12.95;;;8.13;;
65835;SDS011;52595;51.608;7.216;2023-01-28T05:49:31;13.57;;;8.45;;
65835;SDS011;52595;51.608;7.216;2023-01-28T05:51:56;14.55;;;8.32;;
65835;SDS011;52595;51.608;7.216;2023-01-28T05:54:21;15.68;;;9.00;;
65835;SDS011;52595;51.608;7.216;2023-01-28T05:56:47;16.63;;;8.55;;
65835;SDS011;52595;51.608;7.216;2023-01-28T05:59:12;15.02;;;9.10;;
65835;SDS011;52595;51.608;7.216;2023-01-28T06:01:38;14.77;;;9.02;;
65835;SDS011;52595;51.608;7.216;2023-01-28T06:04:03;14.25;;;8.70;;
65835;SDS011;52595;51.608;7.216;2023-01-28T06:06:29;12.95;;;8.30;;
65835;SDS011;52595;51.608;7.216;2023-01-28T06:08:54;13.70;;;8.32;;
65835;SDS011;52595;51.608;7.216;2023-01-28T06:11:20;14.77;;;8.88;;
65835;SDS011;52595;51.608;7.216;2023-01-28T06:13:45;14.30;;;8.35;;
65835;SDS011;52595;51.608;7.216;2023-01-28T06:16:11;14.93;;;8.57;;
65835;SDS011;52595;51.608;7.216;2023-01-28T06:18:36;15.25;;;8.93;;
65835;SDS011;52595;51.608;7.216;2023-01-28T06:21:02;14.32;;;8.57;;
65835;SDS011;52595;51.608;7.216;2023-01-28T06:23:27;14.50;;;8.38;;
65835;SDS011;52595;51.608;7.216;2023-01-28T06:25:53;17.27;;;9.38;;
65835;SDS011;52595;51.608;7.216;2023-01-28T06:28:20;14.93;;;8.50;;
65835;SDS011;52595;51.608;7.216;2023-01-28T06:30:49;13.93;;;8.60;;
65835;SDS011;52595;51.608;7.216;2023-01-28T06:33:15;15.93;;;9.40;;
65835;SDS011;52595;51.608;7.216;2023-01-28T06:35:41;15.75;;;8.63;;
65835;SDS011;52595;51.608;7.216;2023-01-28T06:38:06;13.70;;;8.55;;
65835;SDS011;52595;51.608;7.216;2023-01-28T06:40:32;15.13;;;8.70;;
65835;SDS011;52595;51.608;7.216;2023-01-28T06:42:58;12.38;;;8.02;;
65835;SDS011;52595;51.608;7.216;2023-01-28T06:45:23;14.80;;;8.75;;
65835;SDS011;52595;51.608;7.216;2023-01-28T06:47:49;13.45;;;8.90;;
65835;SDS011;52595;51.608;7.216;2023-01-28T06:50:14;12.95;;;8.23;;
65835;SDS011;52595;51.608;7.216;2023-01-28T06:52:40;14.48;;;8.40;;
65835;SDS011;52595;51.608;7.216;2023-01-28T06:55:06;13.82;;;8.38;;
65835;SDS011;52595;51.608;7.216;2023-01-28T06:57:32;12.85;;;8.57;;
65835;SDS011;52595;51.608;7.216;2023-01-28T06:59:57;13.45;;;8.50;;
65835;SDS011;52595;51.608;7.216;2023-01-28T07:02:22;13.80;;;8.48;;
65835;SDS011;52595;51.608;7.216;2023-01-28T07:04:48;12.75;;;8.73;;
65835;SDS011;52595;51.608;7.216;2023-01-28T07:07:13;14.07;;;8.68;;
65835;SDS011;52595;51.608;7.216;2023-01-28T07:09:38;14.00;;;8.43;;
65835;SDS011;52595;51.608;7.216;2023-01-28T07:12:04;16.25;;;9.23;;
65835;SDS011;52595;51.608;7.216;2023-01-28T07:14:30;13.18;;;8.32;;
65835;SDS011;52595;51.608;7.216;2023-01-28T07:16:55;14.13;;;8.77;;
65835;SDS011;52595;51.608;7.216;2023-01-28T07:19:21;13.60;;;8.52;;
65835;SDS011;52595;51.608;7.216;2023-01-28T07:21:46;14.10;;;8.30;;
65835;SDS011;52595;51.608;7.216;2023-01-28T07:24:12;15.18;;;8.43;;
65835;SDS011;52595;51.608;7.216;2023-01-28T07:26:37;17.70;;;8.93;;
65835;SDS011;52595;51.608;7.216;2023-01-28T07:29:03;14.43;;;8.88;;
65835;SDS011;52595;51.608;7.216;2023-01-28T07:31:28;12.85;;;7.90;;
65835;SDS011;52595;51.608;7.216;2023-01-28T07:33:53;12.60;;;8.00;;
65835;SDS011;52595;51.608;7.216;2023-01-28T07:36:19;14.93;;;8.65;;
65835;SDS011;52595;51.608;7.216;2023-01-28T07:38:44;12.98;;;7.85;;
65835;SDS011;52595;51.608;7.216;2023-01-28T07:41:10;11.25;;;7.50;;
65835;SDS011;52595;51.608;7.216;2023-01-28T07:43:35;13.85;;;7.65;;
65835;SDS011;52595;51.608;7.216;2023-01-28T07:46:00;11.57;;;7.75;;
65835;SDS011;52595;51.608;7.216;2023-01-28T07:48:26;12.73;;;7.72;;
65835;SDS011;52595;51.608;7.216;2023-01-28T07:50:52;13.07;;;6.80;;
65835;SDS011;52595;51.608;7.216;2023-01-28T07:53:18;12.25;;;7.93;;
65835;SDS011;52595;51.608;7.216;2023-01-28T07:55:44;11.77;;;7.15;;
65835;SDS011;52595;51.608;7.216;2023-01-28T07:58:10;12.27;;;7.28;;
65835;SDS011;52595;51.608;7.216;2023-01-28T08:00:36;11.63;;;7.35;;
65835;SDS011;52595;51.608;7.216;2023-01-28T08:03:06;11.65;;;7.45;;
65835;SDS011;52595;51.608;7.216;2023-01-28T08:08:05;11.23;;;7.40;;
65835;SDS011;52595;51.608;7.216;2023-01-28T08:10:31;11.05;;;7.30;;
65835;SDS011;52595;51.608;7.216;2023-01-28T08:12:57;11.23;;;7.32;;
65835;SDS011;52595;51.608;7.216;2023-01-28T08:15:25;13.60;;;7.93;;
65835;SDS011;52595;51.608;7.216;2023-01-28T08:17:55;11.80;;;7.72;;
65835;SDS011;52595;51.608;7.216;2023-01-28T08:20:23;14.40;;;8.70;;
65835;SDS011;52595;51.608;7.216;2023-01-28T08:22:52;14.40;;;8.55;;
65835;SDS011;52595;51.608;7.216;2023-01-28T08:25:18;13.77;;;8.70;;
65835;SDS011;52595;51.608;7.216;2023-01-28T08:27:43;12.73;;;7.80;;
65835;SDS011;52595;51.608;7.216;2023-01-28T08:30:09;13.90;;;8.48;;
65835;SDS011;52595;51.608;7.216;2023-01-28T08:32:35;10.95;;;7.72;;
65835;SDS011;52595;51.608;7.216;2023-01-28T08:35:01;11.45;;;7.80;;
65835;SDS011;52595;51.608;7.216;2023-01-28T08:37:26;12.68;;;8.18;;
65835;SDS011;52595;51.608;7.216;2023-01-28T08:39:52;11.60;;;8.07;;
65835;SDS011;52595;51.608;7.216;2023-01-28T08:42:17;13.30;;;8.18;;
65835;SDS011;52595;51.608;7.216;2023-01-28T08:44:43;12.48;;;8.30;;
65835;SDS011;52595;51.608;7.216;2023-01-28T08:47:08;14.80;;;8.52;;
65835;SDS011;52595;51.608;7.216;2023-01-28T08:49:34;13.02;;;8.43;;
65835;SDS011;52595;51.608;7.216;2023-01-28T08:51:59;13.85;;;8.55;;
65835;SDS011;52595;51.608;7.216;2023-01-28T08:54:25;13.23;;;8.13;;
65835;SDS011;52595;51.608;7.216;2023-01-28T08:56:50;11.82;;;7.82;;
65835;SDS011;52595;51.608;7.216;2023-01-28T08:59:16;12.82;;;8.02;;
65835;SDS011;52595;51.608;7.216;2023-01-28T09:01:42;12.30;;;8.13;;
65835;SDS011;52595;51.608;7.216;2023-01-28T09:04:07;12.50;;;7.80;;
65835;SDS011;52595;51.608;7.216;2023-01-28T09:06:33;12.98;;;8.27;;
65835;SDS011;52595;51.608;7.216;2023-01-28T09:08:59;12.50;;;8.30;;
65835;SDS011;52595;51.608;7.216;2023-01-28T09:11:24;14.20;;;8.48;;
65835;SDS011;52595;51.608;7.216;2023-01-28T09:13:51;12.05;;;7.72;;
65835;SDS011;52595;51.608;7.216;2023-01-28T09:16:16;12.18;;;7.97;;
65835;SDS011;52595;51.608;7.216;2023-01-28T09:18:41;15.25;;;7.93;;
65835;SDS011;52595;51.608;7.216;2023-01-28T09:21:07;12.55;;;7.80;;
65835;SDS011;52595;51.608;7.216;2023-01-28T09:23:33;15.10;;;8.32;;
65835;SDS011;52595;51.608;7.216;2023-01-28T09:26:00;13.07;;;7.80;;
65835;SDS011;52595;51.608;7.216;2023-01-28T09:28:25;12.73;;;8.10;;
65835;SDS011;52595;51.608;7.216;2023-01-28T09:30:51;12.98;;;8.27;;
65835;SDS011;52595;51.608;7.216;2023-01-28T09:33:16;12.00;;;7.47;;
65835;SDS011;52595;51.608;7.216;2023-01-28T09:35:41;13.88;;;7.82;;
65835;SDS011;52595;51.608;7.216;2023-01-28T09:38:07;12.02;;;7.65;;
65835;SDS011;52595;51.608;7.216;2023-01-28T09:40:36;12.88;;;8.20;;
65835;SDS011;52595;51.608;7.216;2023-01-28T09:45:59;12.30;;;7.93;;
65835;SDS011;52595;51.608;7.216;2023-01-28T09:48:29;12.68;;;7.85;;
65835;SDS011;52595;51.608;7.216;2023-01-28T09:51:02;12.25;;;7.75;;
65835;SDS011;52595;51.608;7.216;2023-01-28T09:53:32;11.55;;;7.53;;
65835;SDS011;52595;51.608;7.216;2023-01-28T09:56:04;12.93;;;7.70;;
65835;SDS011;52595;51.608;7.216;2023-01-28T09:58:35;12.32;;;7.40;;
65835;SDS011;52595;51.608;7.216;2023-01-28T10:04:17;12.27;;;7.60;;
65835;SDS011;52595;51.608;7.216;2023-01-28T10:10:10;11.88;;;7.10;;
65835;SDS011;52595;51.608;7.216;2023-01-28T10:18:12;12.63;;;8.35;;
65835;SDS011;52595;51.608;7.216;2023-01-28T10:20:39;13.00;;;7.88;;
65835;SDS011;52595;51.608;7.216;2023-01-28T10:23:20;12.77;;;7.38;;
65835;SDS011;52595;51.608;7.216;2023-01-28T10:25:47;12.15;;;7.40;;
65835;SDS011;52595;51.608;7.216;2023-01-28T10:31:11;10.55;;;7.28;;
65835;SDS011;52595;51.608;7.216;2023-01-28T10:33:38;13.27;;;7.80;;
65835;SDS011;52595;51.608;7.216;2023-01-28T10:36:04;12.18;;;7.80;;
65835;SDS011;52595;51.608;7.216;2023-01-28T10:38:30;12.77;;;7.38;;
65835;SDS011;52595;51.608;7.216;2023-01-28T10:40:57;10.90;;;7.32;;
65835;SDS011;52595;51.608;7.216;2023-01-28T10:43:29;11.40;;;7.68;;
65835;SDS011;52595;51.608;7.216;2023-01-28T10:48:33;11.30;;;7.75;;
65835;SDS011;52595;51.608;7.216;2023-01-28T10:51:03;12.20;;;8.18;;
65835;SDS011;52595;51.608;7.216;2023-01-28T10:53:40;12.55;;;8.07;;
65835;SDS011;52595;51.608;7.216;2023-01-28T10:56:10;16.35;;;8.80;;
65835;SDS011;52595;51.608;7.216;2023-01-28T10:58:47;13.45;;;8.20;;
65835;SDS011;52595;51.608;7.216;2023-01-28T11:01:19;13.18;;;8.20;;
65835;SDS011;52595;51.608;7.216;2023-01-28T11:03:54;14.20;;;8.48;;
65835;SDS011;52595;51.608;7.216;2023-01-28T11:06:26;15.43;;;8.73;;
65835;SDS011;52595;51.608;7.216;2023-01-28T11:08:53;15.32;;;8.60;;
65835;SDS011;52595;51.608;7.216;2023-01-28T11:11:25;16.70;;;9.13;;
65835;SDS011;52595;51.608;7.216;2023-01-28T11:13:51;17.08;;;9.68;;
65835;SDS011;52595;51.608;7.216;2023-01-28T11:16:19;18.30;;;9.65;;
65835;SDS011;52595;51.608;7.216;2023-01-28T11:18:52;15.68;;;9.20;;
65835;SDS011;52595;51.608;7.216;2023-01-28T11:21:20;16.10;;;9.05;;
65835;SDS011;52595;51.608;7.216;2023-01-28T11:26:17;18.55;;;10.20;;
65835;SDS011;52595;51.608;7.216;2023-01-28T11:28:46;16.42;;;9.27;;
65835;SDS011;52595;51.608;7.216;2023-01-28T11:31:13;18.65;;;9.43;;
65835;SDS011;52595;51.608;7.216;2023-01-28T11:33:44;17.02;;;9.50;;
65835;SDS011;52595;51.608;7.216;2023-01-28T11:36:22;20.30;;;10.32;;
65835;SDS011;52595;51.608;7.216;2023-01-28T11:38:52;19.40;;;10.02;;
65835;SDS011;52595;51.608;7.216;2023-01-28T11:43:54;17.25;;;9.25;;
65835;SDS011;52595;51.608;7.216;2023-01-28T11:46:33;19.85;;;9.85;;
65835;SDS011;52595;51.608;7.216;2023-01-28T11:49:13;17.15;;;10.02;;
65835;SDS011;52595;51.608;7.216;2023-01-28T11:51:54;16.52;;;9.48;;
65835;SDS011;52595;51.608;7.216;2023-01-28T12:05:56;16.13;;;9.00;;
65835;SDS011;52595;51.608;7.216;2023-01-28T12:11:23;17.65;;;10.05;;
65835;SDS011;52595;51.608;7.216;2023-01-28T12:22:35;17.90;;;9.88;;
65835;SDS011;52595;51.608;7.216;2023-01-28T12:25:08;16.75;;;9.25;;
65835;SDS011;52595;51.608;7.216;2023-01-28T12:36:48;17.90;;;10.57;;
65835;SDS011;52595;51.608;7.216;2023-01-28T12:42:29;17.48;;;10.13;;
65835;SDS011;52595;51.608;7.216;2023-01-28T12:45:16;17.65;;;9.57;;
65835;SDS011;52595;51.608;7.216;2023-01-28T12:48:00;19.60;;;10.55;;
65835;SDS011;52595;51.608;7.216;2023-01-28T12:50:32;16.05;;;9.65;;
65835;SDS011;52595;51.608;7.216;2023-01-28T12:55:57;17.95;;;10.07;;
65835;SDS011;52595;51.608;7.216;2023-01-28T12:58:41;22.05;;;11.27;;
65835;SDS011;52595;51.608;7.216;2023-01-28T13:01:19;16.67;;;9.85;;
65835;SDS011;52595;51.608;7.216;2023-01-28T13:10:00;19.17;;;9.80;;
65835;SDS011;52595;51.608;7.216;2023-01-28T13:12:35;17.88;;;9.63;;
65835;SDS011;52595;51.608;7.216;2023-01-28T13:15:04;19.05;;;9.52;;
65835;SDS011;52595;51.608;7.216;2023-01-28T13:17:35;16.85;;;9.88;;
65835;SDS011;52595;51.608;7.216;2023-01-28T13:20:01;16.25;;;9.98;;
65835;SDS011;52595;51.608;7.216;2023-01-28T13:22:38;19.05;;;10.43;;
65835;SDS011;52595;51.608;7.216;2023-01-28T13:25:25;15.48;;;9.77;;
65835;SDS011;52595;51.608;7.216;2023-01-28T13:27:57;16.67;;;9.70;;
65835;SDS011;52595;51.608;7.216;2023-01-28T13:30:29;18.40;;;9.85;;
65835;SDS011;52595;51.608;7.216;2023-01-28T13:32:57;18.38;;;10.65;;
65835;SDS011;52595;51.608;7.216;2023-01-28T13:35:29;17.50;;;10.35;;
65835;SDS011;52595;51.608;7.216;2023-01-28T13:37:55;20.23;;;9.93;;
65835;SDS011;52595;51.608;7.216;2023-01-28T13:40:24;17.27;;;10.13;;
65835;SDS011;52595;51.608;7.216;2023-01-28T13:43:03;16.80;;;9.80;;
65835;SDS011;52595;51.608;7.216;2023-01-28T13:45:30;20.33;;;10.10;;
65835;SDS011;52595;51.608;7.216;2023-01-28T13:50:55;17.88;;;10.50;;
65835;SDS011;52595;51.608;7.216;2023-01-28T13:53:36;17.75;;;9.93;;
65835;SDS011;52595;51.608;7.216;2023-01-28T13:56:07;16.17;;;9.90;;
65835;SDS011;52595;51.608;7.216;2023-01-28T14:04:45;17.83;;;10.05;;
65835;SDS011;52595;51.608;7.216;2023-01-28T14:10:07;15.90;;;9.93;;
65835;SDS011;52595;51.608;7.216;2023-01-28T14:12:57;17.48;;;9.88;;
65835;SDS011;52595;51.608;7.216;2023-01-28T14:18:24;14.95;;;10.13;;
65835;SDS011;52595;51.608;7.216;2023-01-28T14:20:58;15.50;;;10.30;;
65835;SDS011;52595;51.608;7.216;2023-01-28T14:23:26;15.73;;;10.10;;
65835;SDS011;52595;51.608;7.216;2023-01-28T14:31:44;16.08;;;10.48;;
65835;SDS011;52595;51.608;7.216;2023-01-28T14:36:40;19.38;;;11.60;;
65835;SDS011;52595;51.608;7.216;2023-01-28T14:39:27;19.67;;;11.75;;
65835;SDS011;52595;51.608;7.216;2023-01-28T14:41:55;20.80;;;11.18;;
65835;SDS011;52595;51.608;7.216;2023-01-28T14:44:28;21.38;;;11.93;;
65835;SDS011;52595;51.608;7.216;2023-01-28T14:49:54;17.85;;;11.07;;
65835;SDS011;52595;51.608;7.216;2023-01-28T14:55:19;17.70;;;10.65;;
65835;SDS011;52595;51.608;7.216;2023-01-28T14:58:22;19.90;;;11.40;;
65835;SDS011;52595;51.608;7.216;2023-01-28T15:00:58;17.17;;;10.57;;
65835;SDS011;52595;51.608;7.216;2023-01-28T15:03:25;18.95;;;11.30;;
65835;SDS011;52595;51.608;7.216;2023-01-28T15:06:04;18.70;;;11.60;;
65835;SDS011;52595;51.608;7.216;2023-01-28T15:08:31;20.38;;;12.10;;
65835;SDS011;52595;51.608;7.216;2023-01-28T15:10:56;20.67;;;11.13;;
65835;SDS011;52595;51.608;7.216;2023-01-28T15:13:25;18.63;;;11.23;;
65835;SDS011;52595;51.608;7.216;2023-01-28T15:15:53;19.23;;;11.50;;
65835;SDS011;52595;51.608;7.216;2023-01-28T15:18:38;20.10;;;11.57;;
65835;SDS011;52595;51.608;7.216;2023-01-28T15:21:06;18.98;;;11.60;;
65835;SDS011;52595;51.608;7.216;2023-01-28T15:23:33;19.25;;;11.50;;
65835;SDS011;52595;51.608;7.216;2023-01-28T15:26:09;21.10;;;11.68;;
65835;SDS011;52595;51.608;7.216;2023-01-28T15:28:39;21.45;;;12.02;;
65835;SDS011;52595;51.608;7.216;2023-01-28T15:31:06;18.27;;;10.40;;
65835;SDS011;52595;51.608;7.216;2023-01-28T15:33:44;19.95;;;10.90;;
65835;SDS011;52595;51.608;7.216;2023-01-28T15:36:09;17.20;;;10.30;;
65835;SDS011;52595;51.608;7.216;2023-01-28T15:38:35;21.40;;;12.13;;
65835;SDS011;52595;51.608;7.216;2023-01-28T15:41:00;21.10;;;12.27;;
65835;SDS011;52595;51.608;7.216;2023-01-28T15:43:28;19.40;;;10.80;;
65835;SDS011;52595;51.608;7.216;2023-01-28T15:45:55;19.55;;;11.27;;
65835;SDS011;52595;51.608;7.216;2023-01-28T15:48:23;19.40;;;11.57;;
65835;SDS011;52595;51.608;7.216;2023-01-28T15:50:59;18.70;;;10.98;;
65835;SDS011;52595;51.608;7.216;2023-01-28T15:53:41;18.70;;;10.45;;
65835;SDS011;52595;51.608;7.216;2023-01-28T15:56:09;20.38;;;10.50;;
65835;SDS011;52595;51.608;7.216;2023-01-28T15:58:36;19.80;;;10.52;;
65835;SDS011;52595;51.608;7.216;2023-01-28T16:01:11;20.10;;;11.55;;
65835;SDS011;52595;51.608;7.216;2023-01-28T16:03:39;22.85;;;11.20;;
65835;SDS011;52595;51.608;7.216;2023-01-28T16:06:08;18.77;;;10.73;;
65835;SDS011;52595;51.608;7.216;2023-01-28T16:08:56;20.40;;;11.10;;
65835;SDS011;52595;51.608;7.216;2023-01-28T16:11:26;22.15;;;11.85;;
65835;SDS011;52595;51.608;7.216;2023-01-28T16:13:55;20.40;;;10.38;;
65835;SDS011;52595;51.608;7.216;2023-01-28T16:16:34;19.52;;;10.73;;
65835;SDS011;52595;51.608;7.216;2023-01-28T16:19:03;21.23;;;10.85;;
65835;SDS011;52595;51.608;7.216;2023-01-28T16:21:31;23.00;;;12.07;;
65835;SDS011;52595;51.608;7.216;2023-01-28T16:24:05;23.50;;;11.73;;
65835;SDS011;52595;51.608;7.216;2023-01-28T16:26:54;21.48;;;11.52;;
65835;SDS011;52595;51.608;7.216;2023-01-28T16:29:24;23.35;;;11.70;;
65835;SDS011;52595;51.608;7.216;2023-01-28T16:31:50;27.33;;;12.77;;
65835;SDS011;52595;51.608;7.216;2023-01-28T16:34:15;25.35;;;12.40;;
65835;SDS011;52595;51.608;7.216;2023-01-28T16:36:41;24.75;;;12.70;;
65835;SDS011;52595;51.608;7.216;2023-01-28T16:39:06;27.90;;;14.23;;
65835;SDS011;52595;51.608;7.216;2023-01-28T16:41:32;26.55;;;13.25;;
65835;SDS011;52595;51.608;7.216;2023-01-28T16:44:09;22.90;;;12.15;;
65835;SDS011;52595;51.608;7.216;2023-01-28T16:46:37;24.33;;;12.30;;
65835;SDS011;52595;51.608;7.216;2023-01-28T16:49:03;24.50;;;12.50;;
65835;SDS011;52595;51.608;7.216;2023-01-28T16:51:28;25.63;;;12.25;;
65835;SDS011;52595;51.608;7.216;2023-01-28T16:53:54;24.25;;;12.68;;